createdAt,value
2023-01-13T00:18:37.448Z,9.76
2023-01-13T00:23:07.019Z,9.75
2023-01-13T00:27:39.074Z,9.72
2023-01-13T00:32:15.980Z,9.72
2023-01-13T00:49:25.207Z,9.72
2023-01-13T00:53:50.229Z,9.69
2023-01-13T00:58:20.691Z,9.69
2023-01-13T01:15:40.645Z,9.72
2023-01-13T01:20:09.823Z,9.70
2023-01-13T01:37:28.816Z,9.71
2023-01-13T01:41:59.828Z,9.68
2023-01-13T01:59:22.869Z,9.75
2023-01-13T02:03:51.669Z,9.75
2023-01-13T02:12:49.802Z,9.81
2023-01-13T02:17:19.554Z,9.79
2023-01-13T02:39:44.318Z,9.76
2023-01-13T02:44:29.427Z,9.73
2023-01-13T03:06:25.979Z,9.71
2023-01-13T03:10:53.832Z,9.72
2023-01-13T03:32:52.763Z,9.76
2023-01-13T03:37:21.580Z,9.75
2023-01-13T03:41:50.986Z,9.76
2023-01-13T03:46:20.376Z,9.76
2023-01-13T03:50:50.829Z,9.77
2023-01-13T04:12:41.121Z,9.86
2023-01-13T04:17:10.325Z,9.86
2023-01-13T04:43:07.447Z,9.83
2023-01-13T04:51:34.067Z,9.83
2023-01-13T04:56:03.269Z,9.81
2023-01-13T05:00:33.125Z,9.78
2023-01-13T05:27:50.741Z,9.71
2023-01-13T05:32:12.778Z,9.68
2023-01-13T05:36:42.432Z,9.65
2023-01-13T05:53:56.641Z,9.69
2023-01-13T05:58:25.882Z,9.68
2023-01-13T06:02:57.638Z,9.69
2023-01-13T06:20:18.066Z,9.72
2023-01-13T06:24:40.874Z,9.74
2023-01-13T06:28:49.705Z,9.73
2023-01-13T06:33:20.524Z,9.65
2023-01-13T06:51:47.670Z,9.63
2023-01-13T06:56:17.000Z,9.59
2023-01-13T07:00:46.487Z,9.58
2023-01-13T07:05:15.330Z,9.57
2023-01-13T07:09:45.560Z,9.53
2023-01-13T07:14:16.930Z,9.50
2023-01-13T07:27:03.003Z,9.52
2023-01-13T07:31:32.481Z,9.52
2023-01-13T07:36:02.514Z,9.54
2023-01-13T07:53:22.620Z,9.68
2023-01-13T07:57:53.522Z,9.67
2023-01-13T08:23:42.350Z,9.74
2023-01-13T08:28:11.550Z,9.74
2023-01-13T08:32:41.965Z,9.79
2023-01-13T08:50:02.139Z,9.88
2023-01-13T08:54:26.814Z,9.88
2023-01-13T09:25:10.542Z,9.97
2023-01-13T09:29:39.744Z,10.00
2023-01-13T09:34:00.142Z,10.06
2023-01-13T10:00:16.821Z,10.19
2023-01-13T10:04:52.503Z,10.21
2023-01-13T10:09:21.730Z,10.22
2023-01-13T10:27:12.293Z,10.24
2023-01-13T10:31:41.106Z,10.18
2023-01-13T10:36:09.035Z,10.17
2023-01-13T10:53:41.079Z,10.31
2023-01-13T10:58:13.365Z,10.37
2023-01-13T11:07:06.736Z,10.64
2023-01-13T11:11:36.030Z,10.99
2023-01-13T11:33:44.644Z,11.30
2023-01-13T11:38:16.902Z,11.21
2023-01-13T11:55:52.516Z,10.82
2023-01-13T12:00:00.896Z,10.81
2023-01-13T12:04:34.066Z,10.83
2023-01-13T12:09:27.100Z,10.83
2023-01-13T12:14:00.062Z,10.87
2023-01-13T12:18:26.455Z,11.04
2023-01-13T12:23:08.525Z,11.05
2023-01-13T12:50:00.525Z,11.31
2023-01-13T12:54:33.185Z,11.17
2023-01-13T13:16:40.692Z,10.72
2023-01-13T13:21:08.374Z,10.69
2023-01-13T13:25:37.110Z,10.65
2023-01-13T13:30:25.264Z,10.64
2023-01-13T13:34:52.972Z,10.63
2023-01-13T13:39:25.884Z,10.61
2023-01-13T13:56:57.113Z,10.34
2023-01-13T14:01:26.273Z,10.28
2023-01-13T14:06:01.996Z,10.21
2023-01-13T14:10:42.264Z,10.12
2023-01-13T14:29:28.020Z,9.91
2023-01-13T14:33:57.292Z,9.78
2023-01-13T14:38:26.416Z,9.67
2023-01-13T15:04:56.157Z,8.96
2023-01-13T15:09:25.482Z,8.81
2023-01-13T15:14:07.831Z,8.69
2023-01-13T15:31:34.896Z,8.43
2023-01-13T15:36:05.550Z,8.37
2023-01-13T15:57:46.446Z,8.14
2023-01-13T16:02:05.549Z,8.13
2023-01-13T16:06:34.889Z,8.14
2023-01-13T16:23:56.407Z,8.25
2023-01-13T16:28:25.216Z,8.23
2023-01-13T16:32:45.330Z,8.22
2023-01-13T16:37:14.700Z,8.20
2023-01-13T16:41:43.894Z,8.20
2023-01-13T16:46:05.837Z,8.21
2023-01-13T17:16:18.316Z,8.27
2023-01-13T17:20:47.279Z,8.29
2023-01-13T17:42:02.749Z,8.37
2023-01-13T17:46:22.526Z,8.35
2023-01-13T17:50:52.062Z,8.34
2023-01-13T17:55:22.881Z,8.33
2023-01-13T17:59:44.520Z,8.32
2023-01-13T18:17:04.402Z,8.36
2023-01-13T18:21:31.560Z,8.34
2023-01-13T18:25:51.907Z,8.32
2023-01-13T18:30:14.773Z,8.30
2023-01-13T18:34:14.160Z,8.30
2023-01-13T18:38:48.819Z,8.28
2023-01-13T18:55:57.916Z,8.38
2023-01-13T19:00:27.585Z,8.38
2023-01-13T19:04:57.518Z,8.40
2023-01-13T19:09:29.606Z,8.43
2023-01-13T19:26:38.253Z,8.50
2023-01-13T19:31:00.402Z,8.46
2023-01-13T19:35:29.857Z,8.43
2023-01-13T19:39:58.814Z,8.41
2023-01-13T22:25:00.575Z,8.14
2023-01-13T22:29:11.118Z,8.16
2023-01-13T22:33:39.818Z,8.17
2023-01-13T22:38:09.731Z,8.18
2023-01-13T22:42:30.156Z,8.22
2023-01-13T22:59:14.532Z,8.37
2023-01-13T23:03:36.040Z,8.38
2023-01-13T23:29:28.103Z,8.47
2023-01-13T23:33:57.064Z,8.45
2023-01-13T23:38:27.472Z,8.44
2023-01-13T23:42:45.555Z,8.44
